sensor_id;sensor_type;location;lat;lon;timestamp;pressure;altitude;pressure_sealevel;temperature
68939;BMP180;59064;45.294;11.816;2024-02-26T00:01:32;100580.40;;;6.20
68939;BMP180;59064;45.294;11.816;2024-02-26T00:03:59;100580.20;;;6.20
68939;BMP180;59064;45.294;11.816;2024-02-26T00:06:28;100582.00;;;6.20
68939;BMP180;59064;45.294;11.816;2024-02-26T00:08:56;100587.40;;;6.12
68939;BMP180;59064;45.294;11.816;2024-02-26T00:11:22;100581.20;;;6.10
68939;BMP180;59064;45.294;11.816;2024-02-26T00:13:49;100579.80;;;6.10
68939;BMP180;59064;45.294;11.816;2024-02-26T00:16:15;100577.00;;;6.10
68939;BMP180;59064;45.294;11.816;2024-02-26T00:18:41;100573.00;;;6.10
68939;BMP180;59064;45.294;11.816;2024-02-26T00:21:06;100568.00;;;6.10
68939;BMP180;59064;45.294;11.816;2024-02-26T00:23:32;100568.20;;;6.10
68939;BMP180;59064;45.294;11.816;2024-02-26T00:25:58;100568.00;;;6.10
68939;BMP180;59064;45.294;11.816;2024-02-26T00:28:24;100559.00;;;6.08
68939;BMP180;59064;45.294;11.816;2024-02-26T00:30:50;100560.80;;;6.00
68939;BMP180;59064;45.294;11.816;2024-02-26T00:33:22;100564.80;;;6.00
68939;BMP180;59064;45.294;11.816;2024-02-26T00:35:49;100566.00;;;6.00
68939;BMP180;59064;45.294;11.816;2024-02-26T00:38:15;100561.80;;;6.00
68939;BMP180;59064;45.294;11.816;2024-02-26T00:40:41;100559.80;;;6.00
68939;BMP180;59064;45.294;11.816;2024-02-26T00:43:07;100553.00;;;6.00
68939;BMP180;59064;45.294;11.816;2024-02-26T00:45:33;100557.00;;;6.00
68939;BMP180;59064;45.294;11.816;2024-02-26T00:47:59;100564.40;;;5.96
68939;BMP180;59064;45.294;11.816;2024-02-26T00:50:36;100560.80;;;5.90
68939;BMP180;59064;45.294;11.816;2024-02-26T00:53:02;100555.40;;;5.90
68939;BMP180;59064;45.294;11.816;2024-02-26T00:55:28;100556.40;;;5.90
68939;BMP180;59064;45.294;11.816;2024-02-26T00:57:53;100552.20;;;5.90
68939;BMP180;59064;45.294;11.816;2024-02-26T01:00:19;100539.20;;;5.90
68939;BMP180;59064;45.294;11.816;2024-02-26T01:02:44;100537.20;;;5.90
68939;BMP180;59064;45.294;11.816;2024-02-26T01:05:13;100531.00;;;5.98
68939;BMP180;59064;45.294;11.816;2024-02-26T01:07:39;100525.00;;;5.98
68939;BMP180;59064;45.294;11.816;2024-02-26T01:10:06;100516.60;;;5.92
68939;BMP180;59064;45.294;11.816;2024-02-26T01:12:36;100509.00;;;5.90
68939;BMP180;59064;45.294;11.816;2024-02-26T01:15:02;100510.00;;;5.90
68939;BMP180;59064;45.294;11.816;2024-02-26T01:17:29;100512.60;;;5.90
68939;BMP180;59064;45.294;11.816;2024-02-26T01:19:55;100511.40;;;5.90
68939;BMP180;59064;45.294;11.816;2024-02-26T01:22:20;100504.00;;;5.90
68939;BMP180;59064;45.294;11.816;2024-02-26T01:24:46;100504.00;;;5.90
68939;BMP180;59064;45.294;11.816;2024-02-26T01:27:11;100503.40;;;5.90
68939;BMP180;59064;45.294;11.816;2024-02-26T01:29:37;100503.40;;;5.90
68939;BMP180;59064;45.294;11.816;2024-02-26T01:32:04;100500.40;;;5.92
68939;BMP180;59064;45.294;11.816;2024-02-26T01:34:31;100499.20;;;5.90
68939;BMP180;59064;45.294;11.816;2024-02-26T01:36:57;100495.20;;;5.90
68939;BMP180;59064;45.294;11.816;2024-02-26T01:39:24;100490.60;;;5.90
68939;BMP180;59064;45.294;11.816;2024-02-26T01:41:49;100497.40;;;5.88
68939;BMP180;59064;45.294;11.816;2024-02-26T01:44:15;100499.20;;;5.88
68939;BMP180;59064;45.294;11.816;2024-02-26T01:46:42;100497.00;;;5.80
68939;BMP180;59064;45.294;11.816;2024-02-26T01:49:11;100491.00;;;5.80
68939;BMP180;59064;45.294;11.816;2024-02-26T01:51:39;100484.20;;;5.80
68939;BMP180;59064;45.294;11.816;2024-02-26T01:54:07;100480.80;;;5.80
68939;BMP180;59064;45.294;11.816;2024-02-26T01:56:34;100481.80;;;5.82
68939;BMP180;59064;45.294;11.816;2024-02-26T01:59:01;100477.20;;;5.90
68939;BMP180;59064;45.294;11.816;2024-02-26T02:01:27;100478.80;;;5.90
68939;BMP180;59064;45.294;11.816;2024-02-26T02:03:57;100481.60;;;5.94
68939;BMP180;59064;45.294;11.816;2024-02-26T02:06:24;100481.00;;;6.00
68939;BMP180;59064;45.294;11.816;2024-02-26T02:08:50;100472.00;;;6.00
68939;BMP180;59064;45.294;11.816;2024-02-26T02:11:17;100467.80;;;6.00
68939;BMP180;59064;45.294;11.816;2024-02-26T02:13:43;100465.60;;;6.00
68939;BMP180;59064;45.294;11.816;2024-02-26T02:16:09;100464.00;;;6.00
68939;BMP180;59064;45.294;11.816;2024-02-26T02:18:36;100460.20;;;6.00
68939;BMP180;59064;45.294;11.816;2024-02-26T02:21:02;100454.40;;;6.00
68939;BMP180;59064;45.294;11.816;2024-02-26T02:23:30;100446.40;;;6.10
68939;BMP180;59064;45.294;11.816;2024-02-26T02:25:57;100447.00;;;6.08
68939;BMP180;59064;45.294;11.816;2024-02-26T02:28:26;100446.40;;;6.10
68939;BMP180;59064;45.294;11.816;2024-02-26T02:30:54;100439.80;;;6.10
68939;BMP180;59064;45.294;11.816;2024-02-26T02:33:25;100437.00;;;6.10
68939;BMP180;59064;45.294;11.816;2024-02-26T02:35:52;100437.00;;;6.10
68939;BMP180;59064;45.294;11.816;2024-02-26T02:38:21;100444.40;;;6.10
68939;BMP180;59064;45.294;11.816;2024-02-26T02:40:48;100443.40;;;6.08
68939;BMP180;59064;45.294;11.816;2024-02-26T02:43:15;100441.60;;;6.00
68939;BMP180;59064;45.294;11.816;2024-02-26T02:45:42;100438.40;;;6.00
68939;BMP180;59064;45.294;11.816;2024-02-26T02:48:08;100433.00;;;6.00
68939;BMP180;59064;45.294;11.816;2024-02-26T02:50:38;100422.20;;;5.90
68939;BMP180;59064;45.294;11.816;2024-02-26T02:53:05;100422.80;;;5.90
68939;BMP180;59064;45.294;11.816;2024-02-26T02:55:31;100417.80;;;5.90
68939;BMP180;59064;45.294;11.816;2024-02-26T02:57:58;100412.60;;;5.88
68939;BMP180;59064;45.294;11.816;2024-02-26T03:00:24;100409.40;;;5.82
68939;BMP180;59064;45.294;11.816;2024-02-26T03:02:51;100406.20;;;5.88
68939;BMP180;59064;45.294;11.816;2024-02-26T03:05:17;100404.80;;;5.86
68939;BMP180;59064;45.294;11.816;2024-02-26T03:07:42;100404.00;;;5.88
68939;BMP180;59064;45.294;11.816;2024-02-26T03:10:08;100408.00;;;5.82
68939;BMP180;59064;45.294;11.816;2024-02-26T03:12:35;100400.60;;;5.80
68939;BMP180;59064;45.294;11.816;2024-02-26T03:15:01;100404.60;;;5.80
68939;BMP180;59064;45.294;11.816;2024-02-26T03:17:29;100398.00;;;5.80
68939;BMP180;59064;45.294;11.816;2024-02-26T03:19:55;100401.80;;;5.80
68939;BMP180;59064;45.294;11.816;2024-02-26T03:22:21;100400.60;;;5.80
68939;BMP180;59064;45.294;11.816;2024-02-26T03:24:49;100402.00;;;5.80
68939;BMP180;59064;45.294;11.816;2024-02-26T03:27:15;100402.00;;;5.80
68939;BMP180;59064;45.294;11.816;2024-02-26T03:29:41;100398.20;;;5.80
68939;BMP180;59064;45.294;11.816;2024-02-26T03:32:09;100402.20;;;5.80
68939;BMP180;59064;45.294;11.816;2024-02-26T03:34:36;100410.60;;;5.80
68939;BMP180;59064;45.294;11.816;2024-02-26T03:37:05;100411.20;;;5.80
68939;BMP180;59064;45.294;11.816;2024-02-26T03:39:33;100414.00;;;5.80
68939;BMP180;59064;45.294;11.816;2024-02-26T03:42:01;100410.20;;;5.80
68939;BMP180;59064;45.294;11.816;2024-02-26T03:44:30;100412.20;;;5.88
68939;BMP180;59064;45.294;11.816;2024-02-26T03:46:57;100412.00;;;5.90
68939;BMP180;59064;45.294;11.816;2024-02-26T03:49:25;100412.20;;;5.90
68939;BMP180;59064;45.294;11.816;2024-02-26T03:51:51;100410.60;;;5.90
68939;BMP180;59064;45.294;11.816;2024-02-26T03:54:17;100407.40;;;5.90
68939;BMP180;59064;45.294;11.816;2024-02-26T03:56:43;100403.60;;;5.90
68939;BMP180;59064;45.294;11.816;2024-02-26T03:59:08;100411.20;;;5.90
68939;BMP180;59064;45.294;11.816;2024-02-26T04:01:34;100412.20;;;5.90
68939;BMP180;59064;45.294;11.816;2024-02-26T04:03:59;100415.00;;;5.94
68939;BMP180;59064;45.294;11.816;2024-02-26T04:06:25;100419.40;;;5.96
68939;BMP180;59064;45.294;11.816;2024-02-26T04:08:52;100419.80;;;5.92
68939;BMP180;59064;45.294;11.816;2024-02-26T04:11:18;100415.80;;;5.90
68939;BMP180;59064;45.294;11.816;2024-02-26T04:13:44;100410.60;;;5.92
68939;BMP180;59064;45.294;11.816;2024-02-26T04:16:16;100400.40;;;6.00
68939;BMP180;59064;45.294;11.816;2024-02-26T04:18:44;100401.40;;;6.00
68939;BMP180;59064;45.294;11.816;2024-02-26T04:21:10;100401.00;;;6.00
68939;BMP180;59064;45.294;11.816;2024-02-26T04:23:37;100405.80;;;5.90
68939;BMP180;59064;45.294;11.816;2024-02-26T04:26:05;100400.60;;;5.90
68939;BMP180;59064;45.294;11.816;2024-02-26T04:28:31;100405.80;;;5.84
68939;BMP180;59064;45.294;11.816;2024-02-26T04:30:58;100403.60;;;5.86
68939;BMP180;59064;45.294;11.816;2024-02-26T04:33:26;100394.20;;;5.84
68939;BMP180;59064;45.294;11.816;2024-02-26T04:35:54;100396.20;;;5.80
68939;BMP180;59064;45.294;11.816;2024-02-26T04:38:21;100395.00;;;5.80
68939;BMP180;59064;45.294;11.816;2024-02-26T04:40:48;100393.20;;;5.80
68939;BMP180;59064;45.294;11.816;2024-02-26T04:43:13;100395.00;;;5.80
68939;BMP180;59064;45.294;11.816;2024-02-26T04:45:39;100393.80;;;5.80
68939;BMP180;59064;45.294;11.816;2024-02-26T04:48:05;100395.40;;;5.70
68939;BMP180;59064;45.294;11.816;2024-02-26T04:50:31;100396.20;;;5.70
68939;BMP180;59064;45.294;11.816;2024-02-26T04:52:57;100397.20;;;5.70
68939;BMP180;59064;45.294;11.816;2024-02-26T04:55:24;100396.00;;;5.70
68939;BMP180;59064;45.294;11.816;2024-02-26T04:57:50;100393.60;;;5.70
68939;BMP180;59064;45.294;11.816;2024-02-26T05:00:17;100381.60;;;5.80
68939;BMP180;59064;45.294;11.816;2024-02-26T05:02:44;100371.60;;;5.80
68939;BMP180;59064;45.294;11.816;2024-02-26T05:05:09;100376.80;;;5.80
68939;BMP180;59064;45.294;11.816;2024-02-26T05:07:42;100370.60;;;5.82
68939;BMP180;59064;45.294;11.816;2024-02-26T05:10:09;100375.80;;;5.90
68939;BMP180;59064;45.294;11.816;2024-02-26T05:12:35;100391.20;;;5.90
68939;BMP180;59064;45.294;11.816;2024-02-26T05:15:01;100391.00;;;5.90
68939;BMP180;59064;45.294;11.816;2024-02-26T05:17:27;100395.40;;;5.92
68939;BMP180;59064;45.294;11.816;2024-02-26T05:19:54;100397.20;;;6.00
68939;BMP180;59064;45.294;11.816;2024-02-26T05:22:19;100396.60;;;6.00
68939;BMP180;59064;45.294;11.816;2024-02-26T05:24:45;100393.20;;;6.00
68939;BMP180;59064;45.294;11.816;2024-02-26T05:27:11;100398.20;;;6.00
68939;BMP180;59064;45.294;11.816;2024-02-26T05:29:37;100399.00;;;6.00
68939;BMP180;59064;45.294;11.816;2024-02-26T05:32:05;100391.20;;;6.00
68939;BMP180;59064;45.294;11.816;2024-02-26T05:34:31;100386.20;;;6.00
68939;BMP180;59064;45.294;11.816;2024-02-26T05:36:58;100391.00;;;6.02
68939;BMP180;59064;45.294;11.816;2024-02-26T05:39:24;100392.80;;;6.08
68939;BMP180;59064;45.294;11.816;2024-02-26T05:41:53;100394.60;;;6.08
68939;BMP180;59064;45.294;11.816;2024-02-26T05:44:18;100388.80;;;6.10
68939;BMP180;59064;45.294;11.816;2024-02-26T05:46:44;100389.00;;;6.10
68939;BMP180;59064;45.294;11.816;2024-02-26T05:49:10;100377.60;;;6.10
68939;BMP180;59064;45.294;11.816;2024-02-26T05:51:36;100376.80;;;6.14
68939;BMP180;59064;45.294;11.816;2024-02-26T05:54:01;100382.40;;;6.10
68939;BMP180;59064;45.294;11.816;2024-02-26T05:56:27;100386.40;;;6.10
68939;BMP180;59064;45.294;11.816;2024-02-26T05:58:53;100395.80;;;6.10
68939;BMP180;59064;45.294;11.816;2024-02-26T06:01:20;100396.60;;;6.10
68939;BMP180;59064;45.294;11.816;2024-02-26T06:03:45;100406.60;;;6.20
68939;BMP180;59064;45.294;11.816;2024-02-26T06:06:11;100407.00;;;6.20
68939;BMP180;59064;45.294;11.816;2024-02-26T06:08:38;100401.80;;;6.24
68939;BMP180;59064;45.294;11.816;2024-02-26T06:11:07;100403.80;;;6.30
68939;BMP180;59064;45.294;11.816;2024-02-26T06:13:34;100409.20;;;6.30
68939;BMP180;59064;45.294;11.816;2024-02-26T06:16:00;100417.80;;;6.30
68939;BMP180;59064;45.294;11.816;2024-02-26T06:18:25;100422.80;;;6.36
68939;BMP180;59064;45.294;11.816;2024-02-26T06:20:51;100426.00;;;6.40
68939;BMP180;59064;45.294;11.816;2024-02-26T06:23:17;100431.80;;;6.40
68939;BMP180;59064;45.294;11.816;2024-02-26T06:25:42;100439.20;;;6.50
68939;BMP180;59064;45.294;11.816;2024-02-26T06:28:08;100446.80;;;6.50
68939;BMP180;59064;45.294;11.816;2024-02-26T06:30:34;100445.40;;;6.50
68939;BMP180;59064;45.294;11.816;2024-02-26T06:33:00;100446.40;;;6.60
68939;BMP180;59064;45.294;11.816;2024-02-26T06:35:26;100449.20;;;6.60
68939;BMP180;59064;45.294;11.816;2024-02-26T06:37:52;100460.60;;;6.60
68939;BMP180;59064;45.294;11.816;2024-02-26T06:40:21;100463.60;;;6.60
68939;BMP180;59064;45.294;11.816;2024-02-26T06:42:47;100461.40;;;6.60
68939;BMP180;59064;45.294;11.816;2024-02-26T06:45:13;100466.00;;;6.60
68939;BMP180;59064;45.294;11.816;2024-02-26T06:47:38;100468.60;;;6.60
68939;BMP180;59064;45.294;11.816;2024-02-26T06:50:04;100473.80;;;6.60
68939;BMP180;59064;45.294;11.816;2024-02-26T06:52:30;100475.80;;;6.60
68939;BMP180;59064;45.294;11.816;2024-02-26T06:54:55;100478.40;;;6.60
68939;BMP180;59064;45.294;11.816;2024-02-26T06:57:21;100479.40;;;6.60
68939;BMP180;59064;45.294;11.816;2024-02-26T06:59:47;100477.80;;;6.60
68939;BMP180;59064;45.294;11.816;2024-02-26T07:02:13;100482.20;;;6.60
68939;BMP180;59064;45.294;11.816;2024-02-26T07:04:39;100478.40;;;6.60
68939;BMP180;59064;45.294;11.816;2024-02-26T07:07:07;100479.20;;;6.60
68939;BMP180;59064;45.294;11.816;2024-02-26T07:09:33;100481.00;;;6.60
68939;BMP180;59064;45.294;11.816;2024-02-26T07:11:59;100478.20;;;6.58
68939;BMP180;59064;45.294;11.816;2024-02-26T07:14:24;100477.60;;;6.60
68939;BMP180;59064;45.294;11.816;2024-02-26T07:16:50;100471.60;;;6.60
68939;BMP180;59064;45.294;11.816;2024-02-26T07:19:16;100471.00;;;6.60
68939;BMP180;59064;45.294;11.816;2024-02-26T07:21:42;100473.80;;;6.60
68939;BMP180;59064;45.294;11.816;2024-02-26T07:24:08;100476.20;;;6.60
68939;BMP180;59064;45.294;11.816;2024-02-26T07:26:34;100479.60;;;6.60
68939;BMP180;59064;45.294;11.816;2024-02-26T07:29:00;100484.60;;;6.58
68939;BMP180;59064;45.294;11.816;2024-02-26T07:31:26;100492.20;;;6.54
68939;BMP180;59064;45.294;11.816;2024-02-26T07:33:52;100492.00;;;6.50
68939;BMP180;59064;45.294;11.816;2024-02-26T07:36:17;100487.60;;;6.60
68939;BMP180;59064;45.294;11.816;2024-02-26T07:38:43;100488.80;;;6.58
68939;BMP180;59064;45.294;11.816;2024-02-26T07:41:09;100492.00;;;6.58
68939;BMP180;59064;45.294;11.816;2024-02-26T07:43:34;100493.60;;;6.60
68939;BMP180;59064;45.294;11.816;2024-02-26T07:46:00;100492.80;;;6.60
68939;BMP180;59064;45.294;11.816;2024-02-26T07:48:26;100492.40;;;6.60
68939;BMP180;59064;45.294;11.816;2024-02-26T07:50:52;100493.20;;;6.60
68939;BMP180;59064;45.294;11.816;2024-02-26T07:53:17;100497.40;;;6.60
68939;BMP180;59064;45.294;11.816;2024-02-26T07:55:43;100488.40;;;6.60
68939;BMP180;59064;45.294;11.816;2024-02-26T07:58:08;100493.00;;;6.68
68939;BMP180;59064;45.294;11.816;2024-02-26T08:00:34;100493.40;;;6.70
68939;BMP180;59064;45.294;11.816;2024-02-26T08:03:00;100490.80;;;6.80
68939;BMP180;59064;45.294;11.816;2024-02-26T08:05:26;100495.80;;;6.86
68939;BMP180;59064;45.294;11.816;2024-02-26T08:07:51;100494.20;;;6.90
68939;BMP180;59064;45.294;11.816;2024-02-26T08:10:17;100493.40;;;7.00
68939;BMP180;59064;45.294;11.816;2024-02-26T08:12:42;100489.40;;;7.00
68939;BMP180;59064;45.294;11.816;2024-02-26T08:15:08;100496.00;;;7.04
68939;BMP180;59064;45.294;11.816;2024-02-26T08:17:34;100496.80;;;7.04
68939;BMP180;59064;45.294;11.816;2024-02-26T08:20:02;100489.80;;;7.10
68939;BMP180;59064;45.294;11.816;2024-02-26T08:22:27;100489.00;;;7.10
68939;BMP180;59064;45.294;11.816;2024-02-26T08:24:53;100486.00;;;7.10
68939;BMP180;59064;45.294;11.816;2024-02-26T08:27:19;100491.60;;;7.10
68939;BMP180;59064;45.294;11.816;2024-02-26T08:29:44;100483.40;;;7.10
68939;BMP180;59064;45.294;11.816;2024-02-26T08:32:10;100486.20;;;7.10
68939;BMP180;59064;45.294;11.816;2024-02-26T08:34:36;100484.20;;;7.12
68939;BMP180;59064;45.294;11.816;2024-02-26T08:37:02;100490.80;;;7.20
68939;BMP180;59064;45.294;11.816;2024-02-26T08:39:28;100487.40;;;7.20
68939;BMP180;59064;45.294;11.816;2024-02-26T08:41:53;100488.00;;;7.30
68939;BMP180;59064;45.294;11.816;2024-02-26T08:44:19;100491.80;;;7.30
68939;BMP180;59064;45.294;11.816;2024-02-26T08:46:44;100491.20;;;7.40
68939;BMP180;59064;45.294;11.816;2024-02-26T08:49:11;100490.60;;;7.50
68939;BMP180;59064;45.294;11.816;2024-02-26T08:51:42;100492.40;;;7.60
68939;BMP180;59064;45.294;11.816;2024-02-26T08:54:08;100489.20;;;7.62
68939;BMP180;59064;45.294;11.816;2024-02-26T08:56:34;100493.00;;;7.70
68939;BMP180;59064;45.294;11.816;2024-02-26T08:58:59;100488.80;;;7.78
68939;BMP180;59064;45.294;11.816;2024-02-26T09:01:31;100487.40;;;7.80
68939;BMP180;59064;45.294;11.816;2024-02-26T09:03:58;100494.60;;;7.90
68939;BMP180;59064;45.294;11.816;2024-02-26T09:06:24;100490.40;;;8.00
68939;BMP180;59064;45.294;11.816;2024-02-26T09:08:50;100492.40;;;8.10
68939;BMP180;59064;45.294;11.816;2024-02-26T09:11:16;100484.00;;;8.20
68939;BMP180;59064;45.294;11.816;2024-02-26T09:13:41;100489.20;;;8.20
68939;BMP180;59064;45.294;11.816;2024-02-26T09:16:07;100483.80;;;8.40
68939;BMP180;59064;45.294;11.816;2024-02-26T09:18:33;100484.20;;;8.50
68939;BMP180;59064;45.294;11.816;2024-02-26T09:20:59;100485.00;;;8.60
68939;BMP180;59064;45.294;11.816;2024-02-26T09:23:24;100486.00;;;8.66
68939;BMP180;59064;45.294;11.816;2024-02-26T09:25:50;100484.60;;;8.70
68939;BMP180;59064;45.294;11.816;2024-02-26T09:28:16;100484.20;;;8.80
68939;BMP180;59064;45.294;11.816;2024-02-26T09:30:44;100485.20;;;8.90
68939;BMP180;59064;45.294;11.816;2024-02-26T09:33:10;100484.60;;;9.00
68939;BMP180;59064;45.294;11.816;2024-02-26T09:35:36;100479.20;;;9.04
68939;BMP180;59064;45.294;11.816;2024-02-26T09:38:02;100480.00;;;9.10
68939;BMP180;59064;45.294;11.816;2024-02-26T09:40:28;100481.40;;;9.10
68939;BMP180;59064;45.294;11.816;2024-02-26T09:42:59;100480.60;;;9.20
68939;BMP180;59064;45.294;11.816;2024-02-26T09:45:26;100481.20;;;9.30
68939;BMP180;59064;45.294;11.816;2024-02-26T09:47:55;100474.60;;;9.34
68939;BMP180;59064;45.294;11.816;2024-02-26T09:50:22;100477.60;;;9.50
68939;BMP180;59064;45.294;11.816;2024-02-26T09:52:48;100474.80;;;9.60
68939;BMP180;59064;45.294;11.816;2024-02-26T09:55:14;100471.80;;;9.74
68939;BMP180;59064;45.294;11.816;2024-02-26T09:57:45;100463.40;;;9.94
68939;BMP180;59064;45.294;11.816;2024-02-26T10:00:21;100459.60;;;10.18
68939;BMP180;59064;45.294;11.816;2024-02-26T10:02:48;100460.40;;;10.30
68939;BMP180;59064;45.294;11.816;2024-02-26T10:05:18;100459.40;;;10.40
68939;BMP180;59064;45.294;11.816;2024-02-26T10:07:46;100460.20;;;10.50
68939;BMP180;59064;45.294;11.816;2024-02-26T10:10:14;100462.00;;;10.60
68939;BMP180;59064;45.294;11.816;2024-02-26T10:12:40;100470.60;;;10.62
68939;BMP180;59064;45.294;11.816;2024-02-26T10:15:05;100475.20;;;10.70
68939;BMP180;59064;45.294;11.816;2024-02-26T10:17:31;100469.20;;;10.82
68939;BMP180;59064;45.294;11.816;2024-02-26T10:20:17;100473.40;;;10.90
68939;BMP180;59064;45.294;11.816;2024-02-26T10:22:44;100472.80;;;10.92
68939;BMP180;59064;45.294;11.816;2024-02-26T10:25:10;100474.80;;;10.96
68939;BMP180;59064;45.294;11.816;2024-02-26T10:27:35;100473.80;;;10.90
68939;BMP180;59064;45.294;11.816;2024-02-26T10:32:39;100475.40;;;10.90
68939;BMP180;59064;45.294;11.816;2024-02-26T10:35:08;100477.40;;;10.80
68939;BMP180;59064;45.294;11.816;2024-02-26T10:37:34;100482.60;;;10.80
68939;BMP180;59064;45.294;11.816;2024-02-26T10:39:59;100482.20;;;10.72
68939;BMP180;59064;45.294;11.816;2024-02-26T10:42:26;100478.20;;;10.72
68939;BMP180;59064;45.294;11.816;2024-02-26T10:44:51;100480.40;;;10.70
68939;BMP180;59064;45.294;11.816;2024-02-26T10:47:17;100478.20;;;10.72
68939;BMP180;59064;45.294;11.816;2024-02-26T10:49:47;100472.60;;;10.80
68939;BMP180;59064;45.294;11.816;2024-02-26T10:52:19;100467.80;;;10.80
68939;BMP180;59064;45.294;11.816;2024-02-26T10:54:47;100467.00;;;10.80
68939;BMP180;59064;45.294;11.816;2024-02-26T10:57:16;100471.20;;;10.80
68939;BMP180;59064;45.294;11.816;2024-02-26T10:59:44;100476.40;;;10.80
68939;BMP180;59064;45.294;11.816;2024-02-26T11:02:11;100478.20;;;10.80
68939;BMP180;59064;45.294;11.816;2024-02-26T11:04:38;100474.00;;;10.80
68939;BMP180;59064;45.294;11.816;2024-02-26T11:07:06;100472.40;;;10.88
68939;BMP180;59064;45.294;11.816;2024-02-26T11:09:34;100464.20;;;10.90
68939;BMP180;59064;45.294;11.816;2024-02-26T11:12:02;100471.00;;;10.90
68939;BMP180;59064;45.294;11.816;2024-02-26T11:14:29;100472.80;;;11.00
68939;BMP180;59064;45.294;11.816;2024-02-26T11:16:56;100472.60;;;11.10
68939;BMP180;59064;45.294;11.816;2024-02-26T11:19:24;100461.00;;;11.10
68939;BMP180;59064;45.294;11.816;2024-02-26T11:21:50;100460.00;;;11.10
68939;BMP180;59064;45.294;11.816;2024-02-26T11:24:19;100460.40;;;11.20
68939;BMP180;59064;45.294;11.816;2024-02-26T11:26:51;100456.20;;;11.30
68939;BMP180;59064;45.294;11.816;2024-02-26T11:29:26;100455.40;;;11.30
68939;BMP180;59064;45.294;11.816;2024-02-26T11:31:53;100444.80;;;11.30
68939;BMP180;59064;45.294;11.816;2024-02-26T11:34:18;100448.00;;;11.30
68939;BMP180;59064;45.294;11.816;2024-02-26T11:36:47;100443.00;;;11.30
68939;BMP180;59064;45.294;11.816;2024-02-26T11:39:14;100433.40;;;11.30
68939;BMP180;59064;45.294;11.816;2024-02-26T11:41:43;100436.00;;;11.20
68939;BMP180;59064;45.294;11.816;2024-02-26T11:44:09;100426.60;;;11.20
68939;BMP180;59064;45.294;11.816;2024-02-26T11:46:43;100434.60;;;11.20
68939;BMP180;59064;45.294;11.816;2024-02-26T11:51:55;100430.80;;;11.10
68939;BMP180;59064;45.294;11.816;2024-02-26T12:00:12;100422.20;;;11.00
68939;BMP180;59064;45.294;11.816;2024-02-26T12:05:22;100432.00;;;10.90
68939;BMP180;59064;45.294;11.816;2024-02-26T12:07:55;100429.20;;;11.00
68939;BMP180;59064;45.294;11.816;2024-02-26T12:12:55;100428.60;;;11.20
68939;BMP180;59064;45.294;11.816;2024-02-26T12:15:24;100430.40;;;11.20
68939;BMP180;59064;45.294;11.816;2024-02-26T12:17:50;100425.60;;;11.20
68939;BMP180;59064;45.294;11.816;2024-02-26T12:20:17;100423.80;;;11.20
68939;BMP180;59064;45.294;11.816;2024-02-26T12:22:46;100419.20;;;11.20
68939;BMP180;59064;45.294;11.816;2024-02-26T12:25:14;100412.60;;;11.10
68939;BMP180;59064;45.294;11.816;2024-02-26T12:27:39;100415.00;;;11.14
68939;BMP180;59064;45.294;11.816;2024-02-26T12:30:08;100421.20;;;11.20
68939;BMP180;59064;45.294;11.816;2024-02-26T12:32:35;100409.80;;;11.20
68939;BMP180;59064;45.294;11.816;2024-02-26T12:35:01;100421.80;;;11.20
68939;BMP180;59064;45.294;11.816;2024-02-26T12:37:28;100419.60;;;11.20
68939;BMP180;59064;45.294;11.816;2024-02-26T12:39:54;100415.20;;;11.28
68939;BMP180;59064;45.294;11.816;2024-02-26T12:42:19;100417.60;;;11.30
68939;BMP180;59064;45.294;11.816;2024-02-26T12:44:46;100420.60;;;11.50
68939;BMP180;59064;45.294;11.816;2024-02-26T12:47:12;100420.80;;;11.50
68939;BMP180;59064;45.294;11.816;2024-02-26T12:49:42;100427.80;;;11.50
68939;BMP180;59064;45.294;11.816;2024-02-26T12:52:10;100426.00;;;11.50
68939;BMP180;59064;45.294;11.816;2024-02-26T12:54:36;100428.60;;;11.50
68939;BMP180;59064;45.294;11.816;2024-02-26T12:57:05;100421.40;;;11.60
68939;BMP180;59064;45.294;11.816;2024-02-26T12:59:34;100430.80;;;11.60
68939;BMP180;59064;45.294;11.816;2024-02-26T13:02:00;100428.20;;;11.60
68939;BMP180;59064;45.294;11.816;2024-02-26T13:04:29;100429.40;;;11.60
68939;BMP180;59064;45.294;11.816;2024-02-26T13:06:55;100428.00;;;11.60
68939;BMP180;59064;45.294;11.816;2024-02-26T13:09:26;100427.40;;;11.60
68939;BMP180;59064;45.294;11.816;2024-02-26T13:11:55;100433.20;;;11.60
68939;BMP180;59064;45.294;11.816;2024-02-26T13:14:21;100433.40;;;11.60
68939;BMP180;59064;45.294;11.816;2024-02-26T13:16:57;100448.20;;;11.60
68939;BMP180;59064;45.294;11.816;2024-02-26T13:19:24;100449.00;;;11.50
68939;BMP180;59064;45.294;11.816;2024-02-26T13:21:50;100437.20;;;11.40
68939;BMP180;59064;45.294;11.816;2024-02-26T13:24:16;100437.60;;;11.40
68939;BMP180;59064;45.294;11.816;2024-02-26T13:26:43;100445.00;;;11.40
68939;BMP180;59064;45.294;11.816;2024-02-26T13:29:08;100438.20;;;11.44
68939;BMP180;59064;45.294;11.816;2024-02-26T13:31:40;100446.40;;;11.40
68939;BMP180;59064;45.294;11.816;2024-02-26T13:34:06;100445.60;;;11.36
68939;BMP180;59064;45.294;11.816;2024-02-26T13:36:31;100425.20;;;11.30
68939;BMP180;59064;45.294;11.816;2024-02-26T13:38:57;100437.00;;;11.22
68939;BMP180;59064;45.294;11.816;2024-02-26T13:41:23;100437.60;;;11.30
68939;BMP180;59064;45.294;11.816;2024-02-26T13:43:49;100439.40;;;11.30
68939;BMP180;59064;45.294;11.816;2024-02-26T13:46:15;100442.40;;;11.30
68939;BMP180;59064;45.294;11.816;2024-02-26T13:48:42;100428.60;;;11.28
68939;BMP180;59064;45.294;11.816;2024-02-26T13:51:09;100429.80;;;11.30
68939;BMP180;59064;45.294;11.816;2024-02-26T13:53:34;100429.80;;;11.30
68939;BMP180;59064;45.294;11.816;2024-02-26T13:56:00;100432.40;;;11.20
68939;BMP180;59064;45.294;11.816;2024-02-26T13:58:27;100432.40;;;11.20
68939;BMP180;59064;45.294;11.816;2024-02-26T14:00:55;100432.40;;;11.14
68939;BMP180;59064;45.294;11.816;2024-02-26T14:03:22;100430.20;;;11.00
68939;BMP180;59064;45.294;11.816;2024-02-26T14:05:48;100430.40;;;11.00
68939;BMP180;59064;45.294;11.816;2024-02-26T14:08:16;100434.00;;;10.90